sensor_id;sensor_type;location;lat;lon;timestamp;P1;durP1;ratioP1;P2;durP2;ratioP2
7144;SDS011;3614;48.736;9.334;2022-07-05T00:00:00;2.33;;;2.20;;
7144;SDS011;3614;48.736;9.334;2022-07-05T00:02:27;5.80;;;2.20;;
7144;SDS011;3614;48.736;9.334;2022-07-05T00:04:54;2.87;;;2.53;;
7144;SDS011;3614;48.736;9.334;2022-07-05T00:07:21;7.00;;;2.67;;
7144;SDS011;3614;48.736;9.334;2022-07-05T00:09:53;2.17;;;2.07;;
7144;SDS011;3614;48.736;9.334;2022-07-05T00:12:21;3.23;;;1.97;;
7144;SDS011;3614;48.736;9.334;2022-07-05T00:14:49;2.53;;;2.33;;
7144;SDS011;3614;48.736;9.334;2022-07-05T00:17:16;3.03;;;2.70;;
7144;SDS011;3614;48.736;9.334;2022-07-05T00:19:44;2.97;;;2.30;;
7144;SDS011;3614;48.736;9.334;2022-07-05T00:22:11;3.03;;;2.23;;
7144;SDS011;3614;48.736;9.334;2022-07-05T00:24:38;9.93;;;2.40;;
7144;SDS011;3614;48.736;9.334;2022-07-05T00:27:06;3.47;;;2.33;;
7144;SDS011;3614;48.736;9.334;2022-07-05T00:29:33;2.30;;;2.20;;
7144;SDS011;3614;48.736;9.334;2022-07-05T00:32:00;2.23;;;2.03;;
7144;SDS011;3614;48.736;9.334;2022-07-05T00:34:27;3.87;;;2.13;;
7144;SDS011;3614;48.736;9.334;2022-07-05T00:36:54;2.77;;;2.50;;
7144;SDS011;3614;48.736;9.334;2022-07-05T00:39:21;3.03;;;2.17;;
7144;SDS011;3614;48.736;9.334;2022-07-05T00:41:49;2.57;;;2.37;;
7144;SDS011;3614;48.736;9.334;2022-07-05T00:44:16;4.93;;;2.57;;
7144;SDS011;3614;48.736;9.334;2022-07-05T00:46:43;3.40;;;2.80;;
7144;SDS011;3614;48.736;9.334;2022-07-05T00:49:11;5.83;;;2.57;;
7144;SDS011;3614;48.736;9.334;2022-07-05T00:51:38;2.70;;;2.50;;
7144;SDS011;3614;48.736;9.334;2022-07-05T00:54:26;3.93;;;2.53;;
7144;SDS011;3614;48.736;9.334;2022-07-05T00:56:54;3.93;;;2.73;;
7144;SDS011;3614;48.736;9.334;2022-07-05T00:59:24;2.67;;;2.30;;
7144;SDS011;3614;48.736;9.334;2022-07-05T01:01:51;5.83;;;1.97;;
7144;SDS011;3614;48.736;9.334;2022-07-05T01:04:18;4.83;;;2.53;;
7144;SDS011;3614;48.736;9.334;2022-07-05T01:06:46;4.23;;;2.47;;
7144;SDS011;3614;48.736;9.334;2022-07-05T01:09:14;6.50;;;2.50;;
7144;SDS011;3614;48.736;9.334;2022-07-05T01:11:45;2.63;;;2.40;;
7144;SDS011;3614;48.736;9.334;2022-07-05T01:14:15;3.40;;;2.37;;
7144;SDS011;3614;48.736;9.334;2022-07-05T01:16:42;2.70;;;2.50;;
7144;SDS011;3614;48.736;9.334;2022-07-05T01:19:12;7.40;;;2.67;;
7144;SDS011;3614;48.736;9.334;2022-07-05T01:21:41;6.70;;;2.97;;
7144;SDS011;3614;48.736;9.334;2022-07-05T01:24:09;3.87;;;2.80;;
7144;SDS011;3614;48.736;9.334;2022-07-05T01:26:37;2.87;;;2.53;;
7144;SDS011;3614;48.736;9.334;2022-07-05T01:29:05;3.67;;;2.83;;
7144;SDS011;3614;48.736;9.334;2022-07-05T01:31:32;3.33;;;2.73;;
7144;SDS011;3614;48.736;9.334;2022-07-05T01:33:59;12.67;;;3.77;;
7144;SDS011;3614;48.736;9.334;2022-07-05T01:36:27;3.30;;;3.00;;
7144;SDS011;3614;48.736;9.334;2022-07-05T01:38:54;4.40;;;2.93;;
7144;SDS011;3614;48.736;9.334;2022-07-05T01:41:21;3.00;;;2.67;;
7144;SDS011;3614;48.736;9.334;2022-07-05T01:43:48;4.90;;;2.80;;
7144;SDS011;3614;48.736;9.334;2022-07-05T01:46:15;2.60;;;2.40;;
7144;SDS011;3614;48.736;9.334;2022-07-05T01:48:44;3.80;;;2.53;;
7144;SDS011;3614;48.736;9.334;2022-07-05T01:51:22;3.20;;;3.00;;
7144;SDS011;3614;48.736;9.334;2022-07-05T01:53:52;3.07;;;2.77;;
7144;SDS011;3614;48.736;9.334;2022-07-05T01:56:20;2.33;;;2.20;;
7144;SDS011;3614;48.736;9.334;2022-07-05T01:58:47;9.60;;;2.53;;
7144;SDS011;3614;48.736;9.334;2022-07-05T02:01:15;6.43;;;2.97;;
7144;SDS011;3614;48.736;9.334;2022-07-05T02:03:42;3.37;;;3.07;;
7144;SDS011;3614;48.736;9.334;2022-07-05T02:06:22;3.47;;;2.83;;
7144;SDS011;3614;48.736;9.334;2022-07-05T02:08:49;8.80;;;2.83;;
7144;SDS011;3614;48.736;9.334;2022-07-05T02:11:16;5.30;;;3.70;;
7144;SDS011;3614;48.736;9.334;2022-07-05T02:13:43;4.57;;;3.13;;
7144;SDS011;3614;48.736;9.334;2022-07-05T02:16:10;3.00;;;2.80;;
7144;SDS011;3614;48.736;9.334;2022-07-05T02:18:38;6.67;;;3.20;;
7144;SDS011;3614;48.736;9.334;2022-07-05T02:21:06;3.30;;;3.10;;
7144;SDS011;3614;48.736;9.334;2022-07-05T02:23:33;5.30;;;3.40;;
7144;SDS011;3614;48.736;9.334;2022-07-05T02:26:01;3.40;;;3.10;;
7144;SDS011;3614;48.736;9.334;2022-07-05T02:28:28;4.30;;;3.60;;
7144;SDS011;3614;48.736;9.334;2022-07-05T02:30:55;3.60;;;3.27;;
7144;SDS011;3614;48.736;9.334;2022-07-05T02:33:22;4.23;;;3.80;;
7144;SDS011;3614;48.736;9.334;2022-07-05T02:35:49;6.03;;;3.20;;
7144;SDS011;3614;48.736;9.334;2022-07-05T02:38:16;4.77;;;3.20;;
7144;SDS011;3614;48.736;9.334;2022-07-05T02:40:43;4.67;;;3.37;;
7144;SDS011;3614;48.736;9.334;2022-07-05T02:43:10;2.90;;;2.70;;
7144;SDS011;3614;48.736;9.334;2022-07-05T02:45:38;3.87;;;2.90;;
7144;SDS011;3614;48.736;9.334;2022-07-05T02:48:05;3.17;;;2.90;;
7144;SDS011;3614;48.736;9.334;2022-07-05T02:50:32;4.10;;;3.03;;
7144;SDS011;3614;48.736;9.334;2022-07-05T02:52:59;4.07;;;2.97;;
7144;SDS011;3614;48.736;9.334;2022-07-05T02:55:26;3.67;;;2.90;;
7144;SDS011;3614;48.736;9.334;2022-07-05T02:57:53;3.23;;;2.93;;
7144;SDS011;3614;48.736;9.334;2022-07-05T03:00:20;5.10;;;3.23;;
7144;SDS011;3614;48.736;9.334;2022-07-05T03:02:48;5.83;;;3.23;;
7144;SDS011;3614;48.736;9.334;2022-07-05T03:05:15;4.90;;;2.60;;
7144;SDS011;3614;48.736;9.334;2022-07-05T03:07:42;4.60;;;2.93;;
7144;SDS011;3614;48.736;9.334;2022-07-05T03:10:09;5.73;;;3.50;;
7144;SDS011;3614;48.736;9.334;2022-07-05T03:12:36;3.07;;;2.80;;
7144;SDS011;3614;48.736;9.334;2022-07-05T03:15:04;2.87;;;2.67;;
7144;SDS011;3614;48.736;9.334;2022-07-05T03:17:36;4.20;;;3.60;;
7144;SDS011;3614;48.736;9.334;2022-07-05T03:20:03;3.07;;;2.60;;
7144;SDS011;3614;48.736;9.334;2022-07-05T03:22:31;3.27;;;2.97;;
7144;SDS011;3614;48.736;9.334;2022-07-05T03:24:58;5.57;;;3.40;;
7144;SDS011;3614;48.736;9.334;2022-07-05T03:27:25;3.27;;;3.00;;
7144;SDS011;3614;48.736;9.334;2022-07-05T03:29:52;4.60;;;3.00;;
7144;SDS011;3614;48.736;9.334;2022-07-05T03:32:19;3.23;;;2.70;;
7144;SDS011;3614;48.736;9.334;2022-07-05T03:34:47;4.33;;;2.97;;
7144;SDS011;3614;48.736;9.334;2022-07-05T03:37:14;3.23;;;3.00;;
7144;SDS011;3614;48.736;9.334;2022-07-05T03:39:41;3.90;;;3.40;;
7144;SDS011;3614;48.736;9.334;2022-07-05T03:42:09;3.60;;;2.80;;
7144;SDS011;3614;48.736;9.334;2022-07-05T03:44:36;5.43;;;3.63;;
7144;SDS011;3614;48.736;9.334;2022-07-05T03:47:03;3.43;;;3.13;;
7144;SDS011;3614;48.736;9.334;2022-07-05T03:49:31;3.43;;;3.13;;
7144;SDS011;3614;48.736;9.334;2022-07-05T03:51:58;4.60;;;3.00;;
7144;SDS011;3614;48.736;9.334;2022-07-05T03:54:25;5.10;;;2.90;;
7144;SDS011;3614;48.736;9.334;2022-07-05T03:56:52;3.90;;;3.50;;
7144;SDS011;3614;48.736;9.334;2022-07-05T03:59:20;3.00;;;2.80;;
7144;SDS011;3614;48.736;9.334;2022-07-05T04:01:47;4.90;;;3.37;;
7144;SDS011;3614;48.736;9.334;2022-07-05T04:04:14;6.03;;;2.93;;
7144;SDS011;3614;48.736;9.334;2022-07-05T04:06:41;3.53;;;3.23;;
7144;SDS011;3614;48.736;9.334;2022-07-05T04:09:09;3.70;;;2.83;;
7144;SDS011;3614;48.736;9.334;2022-07-05T04:11:36;3.23;;;2.93;;
7144;SDS011;3614;48.736;9.334;2022-07-05T04:14:04;5.00;;;2.90;;
7144;SDS011;3614;48.736;9.334;2022-07-05T04:16:31;5.33;;;3.37;;
7144;SDS011;3614;48.736;9.334;2022-07-05T04:18:58;3.30;;;3.00;;
7144;SDS011;3614;48.736;9.334;2022-07-05T04:21:26;3.40;;;3.10;;
7144;SDS011;3614;48.736;9.334;2022-07-05T04:23:53;7.73;;;3.30;;
7144;SDS011;3614;48.736;9.334;2022-07-05T04:26:20;5.57;;;3.30;;
7144;SDS011;3614;48.736;9.334;2022-07-05T04:28:47;3.60;;;2.80;;
7144;SDS011;3614;48.736;9.334;2022-07-05T04:31:21;4.27;;;3.10;;
7144;SDS011;3614;48.736;9.334;2022-07-05T04:33:49;6.00;;;3.90;;
7144;SDS011;3614;48.736;9.334;2022-07-05T04:36:16;3.43;;;3.17;;
7144;SDS011;3614;48.736;9.334;2022-07-05T04:38:44;4.93;;;3.33;;
7144;SDS011;3614;48.736;9.334;2022-07-05T04:41:11;3.07;;;2.87;;
7144;SDS011;3614;48.736;9.334;2022-07-05T04:43:38;3.33;;;3.07;;
7144;SDS011;3614;48.736;9.334;2022-07-05T04:46:05;3.30;;;3.00;;
7144;SDS011;3614;48.736;9.334;2022-07-05T04:48:32;5.90;;;3.20;;
7144;SDS011;3614;48.736;9.334;2022-07-05T04:50:59;6.40;;;3.10;;
7144;SDS011;3614;48.736;9.334;2022-07-05T04:53:26;3.40;;;3.10;;
7144;SDS011;3614;48.736;9.334;2022-07-05T04:55:53;3.77;;;3.30;;
7144;SDS011;3614;48.736;9.334;2022-07-05T04:58:21;4.10;;;3.20;;
7144;SDS011;3614;48.736;9.334;2022-07-05T05:00:48;3.20;;;3.00;;
7144;SDS011;3614;48.736;9.334;2022-07-05T05:03:15;3.20;;;3.00;;
7144;SDS011;3614;48.736;9.334;2022-07-05T05:05:42;3.57;;;3.27;;
7144;SDS011;3614;48.736;9.334;2022-07-05T05:08:09;3.30;;;2.90;;
7144;SDS011;3614;48.736;9.334;2022-07-05T05:10:36;3.33;;;3.03;;
7144;SDS011;3614;48.736;9.334;2022-07-05T05:13:03;4.83;;;3.13;;
7144;SDS011;3614;48.736;9.334;2022-07-05T05:15:31;4.97;;;3.67;;
7144;SDS011;3614;48.736;9.334;2022-07-05T05:17:58;4.97;;;3.20;;
7144;SDS011;3614;48.736;9.334;2022-07-05T05:20:25;5.67;;;4.43;;
7144;SDS011;3614;48.736;9.334;2022-07-05T05:22:52;5.00;;;4.50;;
7144;SDS011;3614;48.736;9.334;2022-07-05T05:25:20;6.00;;;3.80;;
7144;SDS011;3614;48.736;9.334;2022-07-05T05:27:48;4.53;;;4.10;;
7144;SDS011;3614;48.736;9.334;2022-07-05T05:30:17;4.60;;;3.80;;
7144;SDS011;3614;48.736;9.334;2022-07-05T05:32:44;5.00;;;3.57;;
7144;SDS011;3614;48.736;9.334;2022-07-05T05:35:11;5.03;;;4.53;;
7144;SDS011;3614;48.736;9.334;2022-07-05T05:37:51;7.13;;;4.10;;
7144;SDS011;3614;48.736;9.334;2022-07-05T05:40:19;4.20;;;3.80;;
7144;SDS011;3614;48.736;9.334;2022-07-05T05:42:46;3.83;;;3.53;;
7144;SDS011;3614;48.736;9.334;2022-07-05T05:45:14;4.20;;;3.80;;
7144;SDS011;3614;48.736;9.334;2022-07-05T05:47:51;6.33;;;4.10;;
7144;SDS011;3614;48.736;9.334;2022-07-05T05:50:19;8.80;;;3.77;;
7144;SDS011;3614;48.736;9.334;2022-07-05T05:52:47;6.23;;;4.40;;
7144;SDS011;3614;48.736;9.334;2022-07-05T05:55:14;5.30;;;3.70;;
7144;SDS011;3614;48.736;9.334;2022-07-05T05:57:41;5.43;;;4.40;;
7144;SDS011;3614;48.736;9.334;2022-07-05T06:00:09;5.80;;;3.80;;
7144;SDS011;3614;48.736;9.334;2022-07-05T06:02:36;4.73;;;3.50;;
7144;SDS011;3614;48.736;9.334;2022-07-05T06:05:04;6.27;;;3.53;;
7144;SDS011;3614;48.736;9.334;2022-07-05T06:07:31;6.10;;;3.93;;
7144;SDS011;3614;48.736;9.334;2022-07-05T06:09:58;5.00;;;3.60;;
7144;SDS011;3614;48.736;9.334;2022-07-05T06:12:25;3.87;;;3.43;;
7144;SDS011;3614;48.736;9.334;2022-07-05T06:14:52;5.13;;;3.53;;
7144;SDS011;3614;48.736;9.334;2022-07-05T06:17:20;5.07;;;3.20;;
7144;SDS011;3614;48.736;9.334;2022-07-05T06:19:47;3.13;;;2.83;;
7144;SDS011;3614;48.736;9.334;2022-07-05T06:22:14;6.37;;;3.10;;
7144;SDS011;3614;48.736;9.334;2022-07-05T06:24:41;3.27;;;2.97;;
7144;SDS011;3614;48.736;9.334;2022-07-05T06:27:28;4.10;;;3.13;;
7144;SDS011;3614;48.736;9.334;2022-07-05T06:29:57;7.73;;;3.90;;
7144;SDS011;3614;48.736;9.334;2022-07-05T06:32:25;8.70;;;3.73;;
7144;SDS011;3614;48.736;9.334;2022-07-05T06:34:52;5.00;;;3.20;;
7144;SDS011;3614;48.736;9.334;2022-07-05T06:37:19;4.17;;;3.30;;
7144;SDS011;3614;48.736;9.334;2022-07-05T06:39:46;3.57;;;3.20;;
7144;SDS011;3614;48.736;9.334;2022-07-05T06:42:14;9.00;;;2.60;;
7144;SDS011;3614;48.736;9.334;2022-07-05T06:44:42;5.33;;;3.10;;
7144;SDS011;3614;48.736;9.334;2022-07-05T06:47:09;4.80;;;2.87;;
7144;SDS011;3614;48.736;9.334;2022-07-05T06:49:36;6.93;;;2.90;;
7144;SDS011;3614;48.736;9.334;2022-07-05T06:52:04;3.03;;;2.73;;
7144;SDS011;3614;48.736;9.334;2022-07-05T06:54:31;3.23;;;2.93;;
7144;SDS011;3614;48.736;9.334;2022-07-05T06:57:14;3.10;;;2.80;;
7144;SDS011;3614;48.736;9.334;2022-07-05T07:00:00;4.30;;;3.00;;
7144;SDS011;3614;48.736;9.334;2022-07-05T07:02:29;6.57;;;2.73;;
7144;SDS011;3614;48.736;9.334;2022-07-05T07:04:57;8.40;;;2.93;;
7144;SDS011;3614;48.736;9.334;2022-07-05T07:07:41;7.93;;;2.70;;
7144;SDS011;3614;48.736;9.334;2022-07-05T07:10:27;8.27;;;2.73;;
7144;SDS011;3614;48.736;9.334;2022-07-05T07:12:58;7.47;;;2.90;;
7144;SDS011;3614;48.736;9.334;2022-07-05T07:15:25;6.30;;;3.27;;
7144;SDS011;3614;48.736;9.334;2022-07-05T07:17:53;11.17;;;3.50;;
7144;SDS011;3614;48.736;9.334;2022-07-05T07:20:20;5.50;;;3.10;;
7144;SDS011;3614;48.736;9.334;2022-07-05T07:22:47;7.40;;;2.93;;
7144;SDS011;3614;48.736;9.334;2022-07-05T07:25:14;5.17;;;2.90;;
7144;SDS011;3614;48.736;9.334;2022-07-05T07:27:42;25.40;;;3.80;;
7144;SDS011;3614;48.736;9.334;2022-07-05T07:30:11;4.60;;;2.97;;
7144;SDS011;3614;48.736;9.334;2022-07-05T07:32:38;3.93;;;3.20;;
7144;SDS011;3614;48.736;9.334;2022-07-05T07:35:06;4.90;;;2.87;;
7144;SDS011;3614;48.736;9.334;2022-07-05T07:37:33;5.50;;;3.10;;
7144;SDS011;3614;48.736;9.334;2022-07-05T07:40:01;3.27;;;2.50;;
7144;SDS011;3614;48.736;9.334;2022-07-05T07:42:29;3.93;;;2.50;;
7144;SDS011;3614;48.736;9.334;2022-07-05T07:44:56;5.37;;;2.90;;
7144;SDS011;3614;48.736;9.334;2022-07-05T07:47:23;7.60;;;3.20;;
7144;SDS011;3614;48.736;9.334;2022-07-05T07:49:50;14.20;;;3.57;;
7144;SDS011;3614;48.736;9.334;2022-07-05T07:52:17;3.07;;;2.50;;
7144;SDS011;3614;48.736;9.334;2022-07-05T07:54:45;4.67;;;2.60;;
7144;SDS011;3614;48.736;9.334;2022-07-05T07:57:13;6.60;;;2.33;;
7144;SDS011;3614;48.736;9.334;2022-07-05T07:59:40;2.70;;;2.50;;
7144;SDS011;3614;48.736;9.334;2022-07-05T08:02:07;5.07;;;2.70;;
7144;SDS011;3614;48.736;9.334;2022-07-05T08:04:35;2.73;;;2.43;;
7144;SDS011;3614;48.736;9.334;2022-07-05T08:07:02;3.10;;;2.13;;
7144;SDS011;3614;48.736;9.334;2022-07-05T08:09:32;6.07;;;3.10;;
7144;SDS011;3614;48.736;9.334;2022-07-05T08:12:00;3.87;;;2.27;;
7144;SDS011;3614;48.736;9.334;2022-07-05T08:14:27;3.27;;;2.13;;
7144;SDS011;3614;48.736;9.334;2022-07-05T08:16:54;7.90;;;2.30;;
7144;SDS011;3614;48.736;9.334;2022-07-05T08:19:21;2.40;;;1.70;;
7144;SDS011;3614;48.736;9.334;2022-07-05T08:22:07;4.63;;;2.50;;
7144;SDS011;3614;48.736;9.334;2022-07-05T08:24:36;3.37;;;1.77;;
7144;SDS011;3614;48.736;9.334;2022-07-05T08:27:03;2.63;;;1.90;;
7144;SDS011;3614;48.736;9.334;2022-07-05T08:29:30;3.83;;;2.10;;
7144;SDS011;3614;48.736;9.334;2022-07-05T08:31:58;7.80;;;2.10;;
7144;SDS011;3614;48.736;9.334;2022-07-05T08:34:25;1.63;;;1.50;;
7144;SDS011;3614;48.736;9.334;2022-07-05T08:36:52;3.50;;;1.70;;
7144;SDS011;3614;48.736;9.334;2022-07-05T08:39:19;2.50;;;2.10;;
7144;SDS011;3614;48.736;9.334;2022-07-05T08:41:48;2.47;;;1.87;;
7144;SDS011;3614;48.736;9.334;2022-07-05T08:44:19;4.60;;;1.80;;
7144;SDS011;3614;48.736;9.334;2022-07-05T08:46:47;6.50;;;1.70;;
7144;SDS011;3614;48.736;9.334;2022-07-05T08:49:14;10.70;;;1.93;;
7144;SDS011;3614;48.736;9.334;2022-07-05T08:51:42;3.50;;;1.43;;
7144;SDS011;3614;48.736;9.334;2022-07-05T08:54:10;1.90;;;1.40;;
7144;SDS011;3614;48.736;9.334;2022-07-05T08:56:42;2.43;;;1.40;;
7144;SDS011;3614;48.736;9.334;2022-07-05T08:59:30;4.50;;;1.40;;
7144;SDS011;3614;48.736;9.334;2022-07-05T09:01:57;6.67;;;1.67;;
7144;SDS011;3614;48.736;9.334;2022-07-05T09:04:28;1.67;;;1.20;;
7144;SDS011;3614;48.736;9.334;2022-07-05T09:06:56;3.23;;;1.33;;
7144;SDS011;3614;48.736;9.334;2022-07-05T09:09:27;1.53;;;1.33;;
7144;SDS011;3614;48.736;9.334;2022-07-05T09:11:54;1.20;;;1.17;;
7144;SDS011;3614;48.736;9.334;2022-07-05T09:14:42;6.13;;;1.57;;
7144;SDS011;3614;48.736;9.334;2022-07-05T09:17:10;1.53;;;1.30;;
7144;SDS011;3614;48.736;9.334;2022-07-05T09:19:37;2.63;;;1.40;;
7144;SDS011;3614;48.736;9.334;2022-07-05T09:22:06;6.00;;;1.10;;
7144;SDS011;3614;48.736;9.334;2022-07-05T09:24:44;1.33;;;1.17;;
7144;SDS011;3614;48.736;9.334;2022-07-05T09:27:12;2.57;;;1.23;;
7144;SDS011;3614;48.736;9.334;2022-07-05T09:29:52;3.83;;;1.23;;
7144;SDS011;3614;48.736;9.334;2022-07-05T09:32:27;1.23;;;1.13;;
7144;SDS011;3614;48.736;9.334;2022-07-05T09:34:56;3.87;;;1.63;;
7144;SDS011;3614;48.736;9.334;2022-07-05T09:37:23;2.20;;;1.67;;
7144;SDS011;3614;48.736;9.334;2022-07-05T09:40:08;4.00;;;1.33;;
7144;SDS011;3614;48.736;9.334;2022-07-05T09:42:44;1.80;;;1.10;;
7144;SDS011;3614;48.736;9.334;2022-07-05T09:45:23;0.90;;;0.90;;
7144;SDS011;3614;48.736;9.334;2022-07-05T09:47:50;2.20;;;1.20;;
7144;SDS011;3614;48.736;9.334;2022-07-05T09:50:38;5.27;;;1.20;;
7144;SDS011;3614;48.736;9.334;2022-07-05T09:53:25;10.70;;;1.23;;
7144;SDS011;3614;48.736;9.334;2022-07-05T09:56:01;2.40;;;1.40;;
7144;SDS011;3614;48.736;9.334;2022-07-05T09:58:29;3.17;;;1.50;;
7144;SDS011;3614;48.736;9.334;2022-07-05T10:00:56;1.60;;;1.17;;
7144;SDS011;3614;48.736;9.334;2022-07-05T10:03:23;6.63;;;1.60;;
7144;SDS011;3614;48.736;9.334;2022-07-05T10:05:50;6.10;;;1.50;;
7144;SDS011;3614;48.736;9.334;2022-07-05T10:08:24;4.67;;;1.47;;
7144;SDS011;3614;48.736;9.334;2022-07-05T10:10:53;3.67;;;1.17;;
7144;SDS011;3614;48.736;9.334;2022-07-05T10:13:20;2.00;;;1.30;;
7144;SDS011;3614;48.736;9.334;2022-07-05T10:15:48;2.20;;;1.10;;
7144;SDS011;3614;48.736;9.334;2022-07-05T10:18:20;2.30;;;1.00;;
7144;SDS011;3614;48.736;9.334;2022-07-05T10:20:47;1.53;;;1.10;;
7144;SDS011;3614;48.736;9.334;2022-07-05T10:23:18;2.63;;;1.10;;
7144;SDS011;3614;48.736;9.334;2022-07-05T10:25:46;3.43;;;1.00;;
7144;SDS011;3614;48.736;9.334;2022-07-05T10:28:17;4.53;;;1.20;;
7144;SDS011;3614;48.736;9.334;2022-07-05T10:30:45;1.17;;;1.10;;
7144;SDS011;3614;48.736;9.334;2022-07-05T10:33:13;2.53;;;1.20;;
7144;SDS011;3614;48.736;9.334;2022-07-05T10:35:44;3.90;;;1.20;;
7144;SDS011;3614;48.736;9.334;2022-07-05T10:38:11;3.47;;;1.00;;
7144;SDS011;3614;48.736;9.334;2022-07-05T10:40:39;3.87;;;2.33;;
7144;SDS011;3614;48.736;9.334;2022-07-05T10:43:07;4.63;;;1.03;;
7144;SDS011;3614;48.736;9.334;2022-07-05T10:45:36;1.77;;;1.20;;
7144;SDS011;3614;48.736;9.334;2022-07-05T10:50:42;2.93;;;1.30;;
7144;SDS011;3614;48.736;9.334;2022-07-05T10:53:10;1.57;;;1.20;;
7144;SDS011;3614;48.736;9.334;2022-07-05T10:55:54;1.87;;;1.00;;
7144;SDS011;3614;48.736;9.334;2022-07-05T10:58:34;1.97;;;1.10;;
7144;SDS011;3614;48.736;9.334;2022-07-05T11:03:48;1.37;;;1.10;;
7144;SDS011;3614;48.736;9.334;2022-07-05T11:06:22;1.57;;;0.90;;
7144;SDS011;3614;48.736;9.334;2022-07-05T11:11:27;7.60;;;1.20;;
7144;SDS011;3614;48.736;9.334;2022-07-05T11:13:55;2.10;;;0.90;;
7144;SDS011;3614;48.736;9.334;2022-07-05T11:16:25;3.47;;;1.30;;
7144;SDS011;3614;48.736;9.334;2022-07-05T11:19:03;1.67;;;1.10;;
7144;SDS011;3614;48.736;9.334;2022-07-05T11:21:31;1.60;;;1.00;;
7144;SDS011;3614;48.736;9.334;2022-07-05T11:26:45;2.30;;;1.00;;
7144;SDS011;3614;48.736;9.334;2022-07-05T11:32:04;1.03;;;1.00;;
7144;SDS011;3614;48.736;9.334;2022-07-05T11:34:35;8.23;;;1.27;;
7144;SDS011;3614;48.736;9.334;2022-07-05T11:45:12;2.87;;;1.10;;
7144;SDS011;3614;48.736;9.334;2022-07-05T11:47:40;4.63;;;1.30;;
7144;SDS011;3614;48.736;9.334;2022-07-05T11:50:09;1.00;;;0.80;;
7144;SDS011;3614;48.736;9.334;2022-07-05T11:52:37;3.70;;;1.30;;
7144;SDS011;3614;48.736;9.334;2022-07-05T11:55:11;1.97;;;1.60;;
7144;SDS011;3614;48.736;9.334;2022-07-05T11:57:47;2.33;;;1.00;;
7144;SDS011;3614;48.736;9.334;2022-07-05T12:00:29;3.57;;;1.10;;
7144;SDS011;3614;48.736;9.334;2022-07-05T12:02:56;2.77;;;0.90;;
7144;SDS011;3614;48.736;9.334;2022-07-05T12:05:28;4.93;;;1.20;;
7144;SDS011;3614;48.736;9.334;2022-07-05T12:07:56;1.43;;;1.00;;
7144;SDS011;3614;48.736;9.334;2022-07-05T12:10:23;1.97;;;1.20;;
7144;SDS011;3614;48.736;9.334;2022-07-05T12:13:29;2.07;;;1.30;;
7144;SDS011;3614;48.736;9.334;2022-07-05T12:16:00;1.13;;;0.80;;
7144;SDS011;3614;48.736;9.334;2022-07-05T12:18:27;4.10;;;0.90;;
7144;SDS011;3614;48.736;9.334;2022-07-05T12:20:55;1.23;;;0.90;;
7144;SDS011;3614;48.736;9.334;2022-07-05T12:23:26;1.30;;;1.10;;
7144;SDS011;3614;48.736;9.334;2022-07-05T12:25:53;3.40;;;1.40;;
7144;SDS011;3614;48.736;9.334;2022-07-05T12:28:21;2.47;;;1.13;;
7144;SDS011;3614;48.736;9.334;2022-07-05T12:30:48;1.07;;;0.97;;
7144;SDS011;3614;48.736;9.334;2022-07-05T12:33:16;0.90;;;0.87;;
7144;SDS011;3614;48.736;9.334;2022-07-05T12:35:47;0.87;;;0.87;;
7144;SDS011;3614;48.736;9.334;2022-07-05T12:38:17;3.17;;;1.10;;
7144;SDS011;3614;48.736;9.334;2022-07-05T12:40:48;1.10;;;1.00;;
7144;SDS011;3614;48.736;9.334;2022-07-05T12:43:23;1.30;;;1.20;;
7144;SDS011;3614;48.736;9.334;2022-07-05T12:46:03;2.77;;;1.10;;
7144;SDS011;3614;48.736;9.334;2022-07-05T12:48:34;2.17;;;1.20;;
7144;SDS011;3614;48.736;9.334;2022-07-05T12:51:02;1.23;;;1.13;;
7144;SDS011;3614;48.736;9.334;2022-07-05T12:53:48;1.37;;;0.90;;
7144;SDS011;3614;48.736;9.334;2022-07-05T12:56:54;3.03;;;1.00;;
7144;SDS011;3614;48.736;9.334;2022-07-05T13:02:40;2.40;;;1.20;;
7144;SDS011;3614;48.736;9.334;2022-07-05T13:05:09;2.73;;;1.23;;
7144;SDS011;3614;48.736;9.334;2022-07-05T13:07:40;1.60;;;1.10;;
7144;SDS011;3614;48.736;9.334;2022-07-05T13:10:15;1.60;;;1.00;;
7144;SDS011;3614;48.736;9.334;2022-07-05T13:12:42;1.10;;;1.03;;
7144;SDS011;3614;48.736;9.334;2022-07-05T13:15:10;2.03;;;1.03;;
7144;SDS011;3614;48.736;9.334;2022-07-05T13:17:38;1.20;;;1.10;;
7144;SDS011;3614;48.736;9.334;2022-07-05T13:20:05;1.33;;;0.90;;
7144;SDS011;3614;48.736;9.334;2022-07-05T13:22:33;1.13;;;0.93;;
7144;SDS011;3614;48.736;9.334;2022-07-05T13:25:00;2.67;;;1.10;;
7144;SDS011;3614;48.736;9.334;2022-07-05T13:27:28;1.20;;;0.93;;
7144;SDS011;3614;48.736;9.334;2022-07-05T13:29:55;2.60;;;1.00;;
7144;SDS011;3614;48.736;9.334;2022-07-05T13:32:22;0.80;;;0.80;;
7144;SDS011;3614;48.736;9.334;2022-07-05T13:34:49;1.00;;;0.90;;
7144;SDS011;3614;48.736;9.334;2022-07-05T13:37:17;2.67;;;1.30;;
7144;SDS011;3614;48.736;9.334;2022-07-05T13:39:44;1.80;;;1.20;;
7144;SDS011;3614;48.736;9.334;2022-07-05T13:42:11;2.90;;;0.90;;
7144;SDS011;3614;48.736;9.334;2022-07-05T13:44:39;1.90;;;1.20;;
7144;SDS011;3614;48.736;9.334;2022-07-05T13:47:06;1.63;;;1.20;;
7144;SDS011;3614;48.736;9.334;2022-07-05T13:49:34;1.30;;;1.20;;
7144;SDS011;3614;48.736;9.334;2022-07-05T13:52:01;1.00;;;0.93;;
7144;SDS011;3614;48.736;9.334;2022-07-05T13:54:28;2.20;;;1.10;;
7144;SDS011;3614;48.736;9.334;2022-07-05T13:56:55;2.50;;;0.93;;
7144;SDS011;3614;48.736;9.334;2022-07-05T13:59:22;3.00;;;1.20;;
7144;SDS011;3614;48.736;9.334;2022-07-05T14:01:50;2.90;;;1.00;;
7144;SDS011;3614;48.736;9.334;2022-07-05T14:04:17;1.70;;;1.17;;
7144;SDS011;3614;48.736;9.334;2022-07-05T14:06:45;2.10;;;0.93;;
7144;SDS011;3614;48.736;9.334;2022-07-05T14:09:12;1.97;;;1.73;;
7144;SDS011;3614;48.736;9.334;2022-07-05T14:11:39;1.17;;;1.07;;
7144;SDS011;3614;48.736;9.334;2022-07-05T14:14:06;0.87;;;0.77;;
7144;SDS011;3614;48.736;9.334;2022-07-05T14:16:34;5.97;;;0.90;;
7144;SDS011;3614;48.736;9.334;2022-07-05T14:19:01;4.03;;;0.82;;
7144;SDS011;3614;48.736;9.334;2022-07-05T14:21:28;1.10;;;0.80;;
7144;SDS011;3614;48.736;9.334;2022-07-05T14:24:04;1.05;;;0.70;;
7144;SDS011;3614;48.736;9.334;2022-07-05T14:26:31;0.85;;;0.75;;
7144;SDS011;3614;48.736;9.334;2022-07-05T14:28:59;1.33;;;0.90;;
7144;SDS011;3614;48.736;9.334;2022-07-05T14:31:27;0.80;;;0.73;;
7144;SDS011;3614;48.736;9.334;2022-07-05T14:33:57;1.95;;;0.80;;
7144;SDS011;3614;48.736;9.334;2022-07-05T14:36:25;0.70;;;0.70;;
7144;SDS011;3614;48.736;9.334;2022-07-05T14:38:52;4.95;;;1.50;;
7144;SDS011;3614;48.736;9.334;2022-07-05T14:41:19;2.15;;;0.80;;
7144;SDS011;3614;48.736;9.334;2022-07-05T14:43:46;1.88;;;0.80;;
7144;SDS011;3614;48.736;9.334;2022-07-05T14:46:14;0.70;;;0.70;;
7144;SDS011;3614;48.736;9.334;2022-07-05T14:48:45;1.15;;;1.05;;
7144;SDS011;3614;48.736;9.334;2022-07-05T14:51:12;1.10;;;0.70;;
7144;SDS011;3614;48.736;9.334;2022-07-05T14:53:40;1.50;;;0.70;;
7144;SDS011;3614;48.736;9.334;2022-07-05T14:56:08;3.63;;;0.80;;
7144;SDS011;3614;48.736;9.334;2022-07-05T14:58:36;2.58;;;0.70;;
7144;SDS011;3614;48.736;9.334;2022-07-05T15:01:03;1.30;;;0.85;;
7144;SDS011;3614;48.736;9.334;2022-07-05T15:03:30;1.85;;;1.02;;
7144;SDS011;3614;48.736;9.334;2022-07-05T15:05:57;0.70;;;0.70;;
7144;SDS011;3614;48.736;9.334;2022-07-05T15:08:24;1.00;;;0.95;;
7144;SDS011;3614;48.736;9.334;2022-07-05T15:10:54;1.42;;;0.90;;
7144;SDS011;3614;48.736;9.334;2022-07-05T15:13:21;1.55;;;0.98;;
7144;SDS011;3614;48.736;9.334;2022-07-05T15:15:51;1.85;;;0.60;;
7144;SDS011;3614;48.736;9.334;2022-07-05T15:18:19;3.88;;;1.30;;
7144;SDS011;3614;48.736;9.334;2022-07-05T15:20:47;1.02;;;1.02;;
7144;SDS011;3614;48.736;9.334;2022-07-05T15:23:14;1.98;;;1.60;;
7144;SDS011;3614;48.736;9.334;2022-07-05T15:25:41;0.70;;;0.70;;
7144;SDS011;3614;48.736;9.334;2022-07-05T15:28:08;1.15;;;0.80;;
7144;SDS011;3614;48.736;9.334;2022-07-05T15:30:37;1.85;;;0.90;;
7144;SDS011;3614;48.736;9.334;2022-07-05T15:33:04;2.47;;;1.13;;
7144;SDS011;3614;48.736;9.334;2022-07-05T15:35:33;0.63;;;0.63;;
7144;SDS011;3614;48.736;9.334;2022-07-05T15:38:00;3.17;;;0.80;;
7144;SDS011;3614;48.736;9.334;2022-07-05T15:40:28;2.05;;;0.80;;
7144;SDS011;3614;48.736;9.334;2022-07-05T15:42:55;0.93;;;0.80;;
7144;SDS011;3614;48.736;9.334;2022-07-05T15:45:22;0.65;;;0.60;;
7144;SDS011;3614;48.736;9.334;2022-07-05T15:47:49;1.00;;;0.90;;
7144;SDS011;3614;48.736;9.334;2022-07-05T15:50:16;0.80;;;0.80;;